Sakura — JG5711 — position and weather

sailwx.info

Track history (hours):
 
Tides and Currents Weather Stations Pressure Air Temp Water Temp Dewpoint Dewpoint Depression Visibility Wind Speed Wind Dir Waves Ship Positions

Sakura

Last reported at 2015-Aug-28 00:34 UTC. Time now 2015-Aug-28 17:14 UTC.
Position N 35°28' E 139°45'.

Length 32 m; draft 3.6 m.

Type: Tug. MMSI: 431101178.

Date/timePositionNaut miles runAvg speedWind from/ knotsBaromVisibWave heightAir tempDewpointWater temp
2015-Aug-28 00:34N 35°28' E 139°45'1 0.8
2015-Aug-27 23:33N 35°29' E 139°44'1 0.9
2015-Aug-27 22:33N 35°28' E 139°44'0 0.0
2015-Aug-27 21:33N 35°28' E 139°44'2 2.0
2015-Aug-27 20:33N 35°28' E 139°42'1 0.8
2015-Aug-27 19:33N 35°27' E 139°42'0 0.0
2015-Aug-27 18:33N 35°27' E 139°42'0 0.0
2015-Aug-27 17:33N 35°27' E 139°42'1 0.8
2015-Aug-27 16:33N 35°28' E 139°42'0 0.4
2015-Aug-27 15:33N 35°28' E 139°42'0 0.0
2015-Aug-27 14:33N 35°28' E 139°42'0 0.0
2015-Aug-27 13:33N 35°28' E 139°42'0 0.3
2015-Aug-27 12:33N 35°28' E 139°42'1 0.5
2015-Aug-27 11:33N 35°27' E 139°42'0 0.0
2015-Aug-27 10:33N 35°27' E 139°42'1 1.1
2015-Aug-27 09:33N 35°28' E 139°43'1 0.9
2015-Aug-27 08:33N 35°27' E 139°43'2 2.4
2015-Aug-27 07:33N 35°27' E 139°40'0 0.3
2015-Aug-27 06:33N 35°27' E 139°40'0 0.0
2015-Aug-27 05:33N 35°27' E 139°40'0 0.0
2015-Aug-27 04:33N 35°27' E 139°40'0 0.0
2015-Aug-27 03:33N 35°27' E 139°40'1 0.7
2015-Aug-27 02:33N 35°27' E 139°40'2 1.5
2015-Aug-27 01:33N 35°26' E 139°42'2 2.0
2015-Aug-27 00:33N 35°27' E 139°40'0 0.0
2015-Aug-26 23:33N 35°27' E 139°40'0 0.0
2015-Aug-26 22:33N 35°27' E 139°40'0 0.0
2015-Aug-26 21:33N 35°27' E 139°40'0 0.0
2015-Aug-26 20:33N 35°27' E 139°40'0 0.0
2015-Aug-26 07:14N 35°27' E 139°40'0 0.0
2015-Aug-26 06:34N 35°27' E 139°40'0 0.0
2015-Aug-26 05:33N 35°27' E 139°40'0 0.0
2015-Aug-26 04:34N 35°27' E 139°40'1 1.2
2015-Aug-26 03:34N 35°27' E 139°41'3 2.6
2015-Aug-26 02:34N 35°26' E 139°44'5 4.8
2015-Aug-26 01:33N 35°25' E 139°39'0 0.1
2015-Aug-26 00:33N 35°25' E 139°39'5 5.2
2015-Aug-25 23:33N 35°24' E 139°45'1 0.6
2015-Aug-25 22:33N 35°24' E 139°46'6 5.6
2015-Aug-25 21:34N 35°27' E 139°40'0 0.0
2015-Aug-25 10:34N 35°27' E 139°40'3 2.7
2015-Aug-25 09:33N 35°26' E 139°43'2 2.5
2015-Aug-25 08:33N 35°28' E 139°41'0 0.4
2015-Aug-25 07:33N 35°27' E 139°40'1 0.9
2015-Aug-25 06:33N 35°27' E 139°41'1 1.1
2015-Aug-25 05:33N 35°27' E 139°40'0 0.0
2015-Aug-25 04:33N 35°27' E 139°40'2 1.7
2015-Aug-25 03:33N 35°28' E 139°41'2 2.2
2015-Aug-25 02:34N 35°30' E 139°43'2 2.2
2015-Aug-25 01:34N 35°27' E 139°43'2 1.8
2015-Aug-25 00:33N 35°27' E 139°41'1 1.2
2015-Aug-24 23:33N 35°27' E 139°40'0 0.0
2015-Aug-24 22:33N 35°27' E 139°40'2 0.1
2015-Aug-23 22:33N 35°28' E 139°41'1 0.7
2015-Aug-23 21:33N 35°28' E 139°42'1 1.1
2015-Aug-23 20:33N 35°27' E 139°42'0 0.0
2015-Aug-23 19:33N 35°27' E 139°42'2 1.5
2015-Aug-23 18:34N 35°27' E 139°41'1 0.9
2015-Aug-23 17:33N 35°27' E 139°39'0 0.0
2015-Aug-23 16:33N 35°27' E 139°39'0 0.0
2015-Aug-23 15:33N 35°27' E 139°39'0 0.0
2015-Aug-23 14:33N 35°27' E 139°39'0 0.0
2015-Aug-23 13:33N 35°27' E 139°39'0 0.0
2015-Aug-23 12:33N 35°27' E 139°39'0 0.0
2015-Aug-23 11:33N 35°27' E 139°39'0 0.0
2015-Aug-23 10:34N 35°27' E 139°39'7 6.7
2015-Aug-23 09:33N 35°31' E 139°46'3 2.8
2015-Aug-23 08:33N 35°29' E 139°48'5 4.9
2015-Aug-23 07:33N 35°27' E 139°42'2 2.1
2015-Aug-23 06:33N 35°27' E 139°39'0 0.0
2015-Aug-23 05:33N 35°27' E 139°39'4 4.4
2015-Aug-23 04:33N 35°29' E 139°45'2 1.8
2015-Aug-23 03:33N 35°27' E 139°46'5 5.0
2015-Aug-23 02:33N 35°27' E 139°40'0 0.0
2015-Aug-23 01:33N 35°27' E 139°40'0 0.0
2015-Aug-23 00:33N 35°27' E 139°40'0 0.0
2015-Aug-22 23:33N 35°27' E 139°40'0 0.0
2015-Aug-22 22:33N 35°27' E 139°40'0 0.0
2015-Aug-22 21:33N 35°27' E 139°40'0 0.0
2015-Aug-22 20:33N 35°27' E 139°40'0 0.0
2015-Aug-22 07:10N 35°27' E 139°40'0 0.0
2015-Aug-22 06:33N 35°27' E 139°40'0 0.0
2015-Aug-22 05:33N 35°27' E 139°40'0 0.0
2015-Aug-22 04:33N 35°27' E 139°40'0 0.0
2015-Aug-22 03:34N 35°27' E 139°40'0 0.0
2015-Aug-22 02:33N 35°27' E 139°40'0 0.0
2015-Aug-22 01:33N 35°27' E 139°40'1 1.1
2015-Aug-22 00:33N 35°28' E 139°39'0 0.2
2015-Aug-21 23:33N 35°28' E 139°39'1 0.9
2015-Aug-21 22:33N 35°27' E 139°40'0 0.0
2015-Aug-21 21:33N 35°27' E 139°40'0 0.0
2015-Aug-21 20:33N 35°27' E 139°40'0 0.0
2015-Aug-21 07:06N 35°27' E 139°40'2 3.5
2015-Aug-21 06:33N 35°26' E 139°41'1 0.9
2015-Aug-21 05:33N 35°26' E 139°42'2 1.8
2015-Aug-21 04:33N 35°27' E 139°40'0 0.0
2015-Aug-21 03:33N 35°27' E 139°40'0 0.0
2015-Aug-21 02:33N 35°27' E 139°40'0 0.0
2015-Aug-21 01:33N 35°27' E 139°40'0 0.0
2015-Aug-21 00:33N 35°27' E 139°40'1 0.8
2015-Aug-20 23:33N 35°27' E 139°40'1 1.5
2015-Aug-20 22:33N 35°26' E 139°42'2 2.1
2015-Aug-20 21:33N 35°27' E 139°40'0 0.0
2015-Aug-20 07:11N 35°27' E 139°40'4 6.3
2015-Aug-20 06:33N 35°30' E 139°43'3 2.7
2015-Aug-20 05:33N 35°31' E 139°46'1 1.4
2015-Aug-20 04:33N 35°30' E 139°47'1 0.7
2015-Aug-20 03:33N 35°29' E 139°47'0 0.0
2015-Aug-20 02:33N 35°29' E 139°47'2 2.1
2015-Aug-20 01:33N 35°31' E 139°46'7 6.7
2015-Aug-20 00:33N 35°27' E 139°40'0 0.0
2015-Aug-19 23:33N 35°27' E 139°40'0 0.0
2015-Aug-19 22:33N 35°27' E 139°40'0 0.0
2015-Aug-19 21:33N 35°27' E 139°40'0 0.0
2015-Aug-19 20:33N 35°27' E 139°40'0 0.0
2015-Aug-19 08:15N 35°27' E 139°40'0 0.0
2015-Aug-19 07:33N 35°27' E 139°40'0 0.0
2015-Aug-19 06:33N 35°27' E 139°40'0 0.0
2015-Aug-19 05:34N 35°27' E 139°40'0 0.0
2015-Aug-19 04:33N 35°27' E 139°40'5 4.8
2015-Aug-19 03:33N 35°30' E 139°44'2 2.0
2015-Aug-19 02:33N 35°30' E 139°47'1 1.4
2015-Aug-19 01:33N 35°29' E 139°46'0 0.2
2015-Aug-19 00:33N 35°29' E 139°46'2 2.4
2015-Aug-18 23:33N 35°31' E 139°46'5 4.8
2015-Aug-18 22:33N 35°27' E 139°43'2 2.1
2015-Aug-18 21:33N 35°27' E 139°40'0 0.4
2015-Aug-18 20:33N 35°27' E 139°40'0 0.0
2015-Aug-18 07:14N 35°27' E 139°40'6 9.7
2015-Aug-18 06:34N 35°31' E 139°46'4 4.5
2015-Aug-18 05:33N 35°27' E 139°43'2 2.2
2015-Aug-18 04:33N 35°27' E 139°40'1 1.4
2015-Aug-18 04:11N 35°27' E 139°40'0 0.0
2015-Aug-18 04:08N 35°27' E 139°40'0 0.0
2015-Aug-18 03:33N 35°27' E 139°40'0 0.0
2015-Aug-18 02:33N 35°27' E 139°40'0 0.0
2015-Aug-18 01:33N 35°27' E 139°40'  
Track history (hours):
 
Tides and Currents Weather Stations Pressure Air Temp Water Temp Dewpoint Dewpoint Depression Visibility Wind Speed Wind Dir Waves Ship Positions

Sakura

Last reported at 2015-Aug-28 00:34 UTC. Time now 2015-Aug-28 17:14 UTC.
Position N 35°28' E 139°45'.

Length 32 m; draft 3.6 m.

Type: Tug. MMSI: 431101178.

Date/timePositionNaut miles runAvg speedWind from/ knotsBaromVisibWave heightAir tempDewpointWater temp
2015-Aug-28 00:34N 35°28' E 139°45'1 0.8
2015-Aug-27 23:33N 35°29' E 139°44'1 0.9
2015-Aug-27 22:33N 35°28' E 139°44'0 0.0
2015-Aug-27 21:33N 35°28' E 139°44'2 2.0
2015-Aug-27 20:33N 35°28' E 139°42'1 0.8
2015-Aug-27 19:33N 35°27' E 139°42'0 0.0
2015-Aug-27 18:33N 35°27' E 139°42'0 0.0
2015-Aug-27 17:33N 35°27' E 139°42'1 0.8
2015-Aug-27 16:33N 35°28' E 139°42'0 0.4
2015-Aug-27 15:33N 35°28' E 139°42'0 0.0
2015-Aug-27 14:33N 35°28' E 139°42'0 0.0
2015-Aug-27 13:33N 35°28' E 139°42'0 0.3
2015-Aug-27 12:33N 35°28' E 139°42'1 0.5
2015-Aug-27 11:33N 35°27' E 139°42'0 0.0
2015-Aug-27 10:33N 35°27' E 139°42'1 1.1
2015-Aug-27 09:33N 35°28' E 139°43'1 0.9
2015-Aug-27 08:33N 35°27' E 139°43'2 2.4
2015-Aug-27 07:33N 35°27' E 139°40'0 0.3
2015-Aug-27 06:33N 35°27' E 139°40'0 0.0
2015-Aug-27 05:33N 35°27' E 139°40'0 0.0
2015-Aug-27 04:33N 35°27' E 139°40'0 0.0
2015-Aug-27 03:33N 35°27' E 139°40'1 0.7
2015-Aug-27 02:33N 35°27' E 139°40'2 1.5
2015-Aug-27 01:33N 35°26' E 139°42'2 2.0
2015-Aug-27 00:33N 35°27' E 139°40'0 0.0
2015-Aug-26 23:33N 35°27' E 139°40'0 0.0
2015-Aug-26 22:33N 35°27' E 139°40'0 0.0
2015-Aug-26 21:33N 35°27' E 139°40'0 0.0
2015-Aug-26 20:33N 35°27' E 139°40'0 0.0
2015-Aug-26 07:14N 35°27' E 139°40'0 0.0
2015-Aug-26 06:34N 35°27' E 139°40'0 0.0
2015-Aug-26 05:33N 35°27' E 139°40'0 0.0
2015-Aug-26 04:34N 35°27' E 139°40'1 1.2
2015-Aug-26 03:34N 35°27' E 139°41'3 2.6
2015-Aug-26 02:34N 35°26' E 139°44'5 4.8
2015-Aug-26 01:33N 35°25' E 139°39'0 0.1
2015-Aug-26 00:33N 35°25' E 139°39'5 5.2
2015-Aug-25 23:33N 35°24' E 139°45'1 0.6
2015-Aug-25 22:33N 35°24' E 139°46'6 5.6
2015-Aug-25 21:34N 35°27' E 139°40'0 0.0
2015-Aug-25 10:34N 35°27' E 139°40'3 2.7
2015-Aug-25 09:33N 35°26' E 139°43'2 2.5
2015-Aug-25 08:33N 35°28' E 139°41'0 0.4
2015-Aug-25 07:33N 35°27' E 139°40'1 0.9
2015-Aug-25 06:33N 35°27' E 139°41'1 1.1
2015-Aug-25 05:33N 35°27' E 139°40'0 0.0
2015-Aug-25 04:33N 35°27' E 139°40'2 1.7
2015-Aug-25 03:33N 35°28' E 139°41'2 2.2
2015-Aug-25 02:34N 35°30' E 139°43'2 2.2
2015-Aug-25 01:34N 35°27' E 139°43'2 1.8
2015-Aug-25 00:33N 35°27' E 139°41'1 1.2
2015-Aug-24 23:33N 35°27' E 139°40'0 0.0
2015-Aug-24 22:33N 35°27' E 139°40'2 0.1
2015-Aug-23 22:33N 35°28' E 139°41'1 0.7
2015-Aug-23 21:33N 35°28' E 139°42'1 1.1
2015-Aug-23 20:33N 35°27' E 139°42'0 0.0
2015-Aug-23 19:33N 35°27' E 139°42'2 1.5
2015-Aug-23 18:34N 35°27' E 139°41'1 0.9
2015-Aug-23 17:33N 35°27' E 139°39'0 0.0
2015-Aug-23 16:33N 35°27' E 139°39'0 0.0
2015-Aug-23 15:33N 35°27' E 139°39'0 0.0
2015-Aug-23 14:33N 35°27' E 139°39'0 0.0
2015-Aug-23 13:33N 35°27' E 139°39'0 0.0
2015-Aug-23 12:33N 35°27' E 139°39'0 0.0
2015-Aug-23 11:33N 35°27' E 139°39'0 0.0
2015-Aug-23 10:34N 35°27' E 139°39'7 6.7
2015-Aug-23 09:33N 35°31' E 139°46'3 2.8
2015-Aug-23 08:33N 35°29' E 139°48'5 4.9
2015-Aug-23 07:33N 35°27' E 139°42'2 2.1
2015-Aug-23 06:33N 35°27' E 139°39'0 0.0
2015-Aug-23 05:33N 35°27' E 139°39'4 4.4
2015-Aug-23 04:33N 35°29' E 139°45'2 1.8
2015-Aug-23 03:33N 35°27' E 139°46'5 5.0
2015-Aug-23 02:33N 35°27' E 139°40'0 0.0
2015-Aug-23 01:33N 35°27' E 139°40'0 0.0
2015-Aug-23 00:33N 35°27' E 139°40'0 0.0
2015-Aug-22 23:33N 35°27' E 139°40'0 0.0
2015-Aug-22 22:33N 35°27' E 139°40'0 0.0
2015-Aug-22 21:33N 35°27' E 139°40'0 0.0
2015-Aug-22 20:33N 35°27' E 139°40'0 0.0
2015-Aug-22 07:10N 35°27' E 139°40'0 0.0
2015-Aug-22 06:33N 35°27' E 139°40'0 0.0
2015-Aug-22 05:33N 35°27' E 139°40'0 0.0
2015-Aug-22 04:33N 35°27' E 139°40'0 0.0
2015-Aug-22 03:34N 35°27' E 139°40'0 0.0
2015-Aug-22 02:33N 35°27' E 139°40'0 0.0
2015-Aug-22 01:33N 35°27' E 139°40'1 1.1
2015-Aug-22 00:33N 35°28' E 139°39'0 0.2
2015-Aug-21 23:33N 35°28' E 139°39'1 0.9
2015-Aug-21 22:33N 35°27' E 139°40'0 0.0
2015-Aug-21 21:33N 35°27' E 139°40'0 0.0
2015-Aug-21 20:33N 35°27' E 139°40'0 0.0
2015-Aug-21 07:06N 35°27' E 139°40'2 3.5
2015-Aug-21 06:33N 35°26' E 139°41'1 0.9
2015-Aug-21 05:33N 35°26' E 139°42'2 1.8
2015-Aug-21 04:33N 35°27' E 139°40'0 0.0
2015-Aug-21 03:33N 35°27' E 139°40'0 0.0
2015-Aug-21 02:33N 35°27' E 139°40'0 0.0
2015-Aug-21 01:33N 35°27' E 139°40'0 0.0
2015-Aug-21 00:33N 35°27' E 139°40'1 0.8
2015-Aug-20 23:33N 35°27' E 139°40'1 1.5
2015-Aug-20 22:33N 35°26' E 139°42'2 2.1
2015-Aug-20 21:33N 35°27' E 139°40'0 0.0
2015-Aug-20 07:11N 35°27' E 139°40'4 6.3
2015-Aug-20 06:33N 35°30' E 139°43'3 2.7
2015-Aug-20 05:33N 35°31' E 139°46'1 1.4
2015-Aug-20 04:33N 35°30' E 139°47'1 0.7
2015-Aug-20 03:33N 35°29' E 139°47'0 0.0
2015-Aug-20 02:33N 35°29' E 139°47'2 2.1
2015-Aug-20 01:33N 35°31' E 139°46'7 6.7
2015-Aug-20 00:33N 35°27' E 139°40'0 0.0
2015-Aug-19 23:33N 35°27' E 139°40'0 0.0
2015-Aug-19 22:33N 35°27' E 139°40'0 0.0
2015-Aug-19 21:33N 35°27' E 139°40'0 0.0
2015-Aug-19 20:33N 35°27' E 139°40'0 0.0
2015-Aug-19 08:15N 35°27' E 139°40'0 0.0
2015-Aug-19 07:33N 35°27' E 139°40'0 0.0
2015-Aug-19 06:33N 35°27' E 139°40'0 0.0
2015-Aug-19 05:34N 35°27' E 139°40'0 0.0
2015-Aug-19 04:33N 35°27' E 139°40'5 4.8
2015-Aug-19 03:33N 35°30' E 139°44'2 2.0
2015-Aug-19 02:33N 35°30' E 139°47'1 1.4
2015-Aug-19 01:33N 35°29' E 139°46'0 0.2
2015-Aug-19 00:33N 35°29' E 139°46'2 2.4
2015-Aug-18 23:33N 35°31' E 139°46'5 4.8
2015-Aug-18 22:33N 35°27' E 139°43'2 2.1
2015-Aug-18 21:33N 35°27' E 139°40'0 0.4
2015-Aug-18 20:33N 35°27' E 139°40'0 0.0
2015-Aug-18 07:14N 35°27' E 139°40'6 9.7
2015-Aug-18 06:34N 35°31' E 139°46'4 4.5
2015-Aug-18 05:33N 35°27' E 139°43'2 2.2
2015-Aug-18 04:33N 35°27' E 139°40'1 1.4
2015-Aug-18 04:11N 35°27' E 139°40'0 0.0
2015-Aug-18 04:08N 35°27' E 139°40'0 0.0
2015-Aug-18 03:33N 35°27' E 139°40'0 0.0
2015-Aug-18 02:33N 35°27' E 139°40'0 0.0
2015-Aug-18 01:33N 35°27' E 139°40'  

Dump ship's entire track history